sensor_id;sensor_type;location;lat;lon;timestamp;pressure;altitude;pressure_sealevel;temperature;humidity
12213;BME280;6169;44.158;22.788;2023-05-10T00:00:34;101589.53;;;14.30;58.50
12213;BME280;6169;44.158;22.788;2023-05-10T00:05:37;101585.88;;;14.13;59.33
12213;BME280;6169;44.158;22.788;2023-05-10T00:10:39;101581.78;;;13.56;60.78
12213;BME280;6169;44.158;22.788;2023-05-10T00:15:43;101570.41;;;14.07;59.20
12213;BME280;6169;44.158;22.788;2023-05-10T00:20:45;101584.72;;;13.55;59.52
12213;BME280;6169;44.158;22.788;2023-05-10T00:25:47;101572.28;;;13.71;59.83
12213;BME280;6169;44.158;22.788;2023-05-10T00:30:51;101564.69;;;13.73;59.85
12213;BME280;6169;44.158;22.788;2023-05-10T00:35:53;101568.19;;;13.38;60.07
12213;BME280;6169;44.158;22.788;2023-05-10T00:40:55;101560.88;;;13.50;60.13
12213;BME280;6169;44.158;22.788;2023-05-10T00:45:59;101568.00;;;14.22;57.09
12213;BME280;6169;44.158;22.788;2023-05-10T00:51:02;101565.06;;;13.76;58.86
12213;BME280;6169;44.158;22.788;2023-05-10T00:56:05;101551.72;;;13.45;59.64
12213;BME280;6169;44.158;22.788;2023-05-10T01:01:09;101553.28;;;13.64;58.79
12213;BME280;6169;44.158;22.788;2023-05-10T01:06:12;101539.72;;;13.46;59.30
12213;BME280;6169;44.158;22.788;2023-05-10T01:11:14;101545.00;;;13.05;59.60
12213;BME280;6169;44.158;22.788;2023-05-10T01:16:18;101548.25;;;13.26;59.08
12213;BME280;6169;44.158;22.788;2023-05-10T01:21:27;101553.00;;;12.88;59.92
12213;BME280;6169;44.158;22.788;2023-05-10T01:26:44;101533.97;;;13.24;59.00
12213;BME280;6169;44.158;22.788;2023-05-10T01:32:15;101550.13;;;13.13;58.69
12213;BME280;6169;44.158;22.788;2023-05-10T01:37:21;101535.94;;;13.58;58.13
12213;BME280;6169;44.158;22.788;2023-05-10T01:42:28;101525.94;;;13.41;58.08
12213;BME280;6169;44.158;22.788;2023-05-10T01:47:38;101538.41;;;13.48;58.00
12213;BME280;6169;44.158;22.788;2023-05-10T01:52:42;101541.94;;;13.25;58.08
12213;BME280;6169;44.158;22.788;2023-05-10T01:57:46;101527.84;;;12.68;59.34
12213;BME280;6169;44.158;22.788;2023-05-10T02:02:52;101528.31;;;13.60;58.35
12213;BME280;6169;44.158;22.788;2023-05-10T02:07:55;101524.41;;;13.33;58.91
12213;BME280;6169;44.158;22.788;2023-05-10T02:12:58;101516.44;;;13.43;58.52
12213;BME280;6169;44.158;22.788;2023-05-10T02:18:04;101518.34;;;12.70;60.24
12213;BME280;6169;44.158;22.788;2023-05-10T02:23:08;101522.06;;;12.95;60.08
12213;BME280;6169;44.158;22.788;2023-05-10T02:28:11;101522.38;;;12.86;60.21
12213;BME280;6169;44.158;22.788;2023-05-10T02:33:16;101514.06;;;13.47;59.71
12213;BME280;6169;44.158;22.788;2023-05-10T02:38:20;101513.69;;;13.55;58.37
12213;BME280;6169;44.158;22.788;2023-05-10T02:43:24;101519.38;;;13.30;58.94
12213;BME280;6169;44.158;22.788;2023-05-10T02:48:29;101510.63;;;13.28;58.35
12213;BME280;6169;44.158;22.788;2023-05-10T02:53:33;101516.44;;;13.31;58.84
12213;BME280;6169;44.158;22.788;2023-05-10T02:58:36;101515.97;;;13.58;58.19
12213;BME280;6169;44.158;22.788;2023-05-10T03:03:40;101505.28;;;13.68;57.84
12213;BME280;6169;44.158;22.788;2023-05-10T03:08:42;101509.53;;;13.29;57.86
12213;BME280;6169;44.158;22.788;2023-05-10T03:13:55;101512.31;;;13.64;58.07
12213;BME280;6169;44.158;22.788;2023-05-10T03:19:05;101508.97;;;13.62;58.00
12213;BME280;6169;44.158;22.788;2023-05-10T03:24:09;101504.84;;;12.94;60.20
12213;BME280;6169;44.158;22.788;2023-05-10T03:29:15;101506.44;;;12.53;60.34
12213;BME280;6169;44.158;22.788;2023-05-10T03:34:24;101521.75;;;12.54;61.99
12213;BME280;6169;44.158;22.788;2023-05-10T03:39:27;101519.25;;;12.34;60.50
12213;BME280;6169;44.158;22.788;2023-05-10T03:44:29;101517.50;;;12.40;61.42
12213;BME280;6169;44.158;22.788;2023-05-10T03:49:33;101515.22;;;12.55;61.13
12213;BME280;6169;44.158;22.788;2023-05-10T03:54:35;101521.19;;;12.64;60.15
12213;BME280;6169;44.158;22.788;2023-05-10T03:59:37;101526.47;;;12.29;61.63
12213;BME280;6169;44.158;22.788;2023-05-10T04:04:41;101524.19;;;12.25;61.49
12213;BME280;6169;44.158;22.788;2023-05-10T04:09:43;101528.81;;;12.43;60.50
12213;BME280;6169;44.158;22.788;2023-05-10T04:14:45;101530.25;;;13.06;60.41
12213;BME280;6169;44.158;22.788;2023-05-10T04:19:49;101527.94;;;12.61;60.47
12213;BME280;6169;44.158;22.788;2023-05-10T04:24:53;101539.94;;;12.90;60.01
12213;BME280;6169;44.158;22.788;2023-05-10T04:29:55;101528.47;;;13.00;58.79
12213;BME280;6169;44.158;22.788;2023-05-10T04:34:59;101527.38;;;13.43;57.53
12213;BME280;6169;44.158;22.788;2023-05-10T04:40:05;101524.97;;;13.47;57.92
12213;BME280;6169;44.158;22.788;2023-05-10T04:45:08;101529.28;;;13.66;56.47
12213;BME280;6169;44.158;22.788;2023-05-10T04:50:12;101522.72;;;13.55;57.59
12213;BME280;6169;44.158;22.788;2023-05-10T04:55:15;101522.34;;;13.17;57.90
12213;BME280;6169;44.158;22.788;2023-05-10T05:00:17;101517.25;;;13.44;57.55
12213;BME280;6169;44.158;22.788;2023-05-10T05:05:21;101521.41;;;13.23;58.18
12213;BME280;6169;44.158;22.788;2023-05-10T05:10:23;101523.31;;;13.34;58.10
12213;BME280;6169;44.158;22.788;2023-05-10T05:15:26;101532.81;;;14.14;56.19
12213;BME280;6169;44.158;22.788;2023-05-10T05:20:32;101527.94;;;14.68;53.97
12213;BME280;6169;44.158;22.788;2023-05-10T05:25:34;101536.13;;;14.80;53.61
12213;BME280;6169;44.158;22.788;2023-05-10T05:30:36;101540.53;;;14.29;53.01
12213;BME280;6169;44.158;22.788;2023-05-10T05:35:40;101539.09;;;14.78;53.63
12213;BME280;6169;44.158;22.788;2023-05-10T05:40:43;101542.47;;;14.57;53.19
12213;BME280;6169;44.158;22.788;2023-05-10T05:45:46;101539.47;;;15.15;52.46
12213;BME280;6169;44.158;22.788;2023-05-10T05:50:49;101541.22;;;14.76;52.90
12213;BME280;6169;44.158;22.788;2023-05-10T05:55:52;101538.78;;;14.91;52.08
12213;BME280;6169;44.158;22.788;2023-05-10T06:00:55;101532.03;;;15.28;50.63
12213;BME280;6169;44.158;22.788;2023-05-10T06:05:59;101378.06;;;14.13;50.75
12213;BME280;6169;44.158;22.788;2023-05-10T06:11:01;101538.41;;;15.00;49.87
12213;BME280;6169;44.158;22.788;2023-05-10T06:16:05;101538.41;;;15.00;51.05
12213;BME280;6169;44.158;22.788;2023-05-10T06:21:09;101544.72;;;15.17;49.89
12213;BME280;6169;44.158;22.788;2023-05-10T06:26:11;101547.16;;;15.47;48.34
12213;BME280;6169;44.158;22.788;2023-05-10T06:31:14;101555.91;;;15.61;47.57
12213;BME280;6169;44.158;22.788;2023-05-10T06:36:18;101567.69;;;15.78;47.50
12213;BME280;6169;44.158;22.788;2023-05-10T06:41:20;101565.94;;;15.89;47.05
12213;BME280;6169;44.158;22.788;2023-05-10T06:46:22;101558.13;;;15.81;45.61
12213;BME280;6169;44.158;22.788;2023-05-10T06:51:26;101571.81;;;15.98;46.42
12213;BME280;6169;44.158;22.788;2023-05-10T06:56:28;101563.78;;;16.13;45.46
12213;BME280;6169;44.158;22.788;2023-05-10T07:01:31;101565.88;;;16.06;44.99
12213;BME280;6169;44.158;22.788;2023-05-10T07:06:34;101566.91;;;16.22;45.48
12213;BME280;6169;44.158;22.788;2023-05-10T07:11:36;101565.63;;;16.46;45.26
12213;BME280;6169;44.158;22.788;2023-05-10T07:16:39;101570.88;;;16.31;43.93
12213;BME280;6169;44.158;22.788;2023-05-10T07:21:42;101566.72;;;16.28;43.52
12213;BME280;6169;44.158;22.788;2023-05-10T07:26:45;101563.91;;;16.01;43.05
12213;BME280;6169;44.158;22.788;2023-05-10T07:31:47;101559.84;;;16.26;42.32
12213;BME280;6169;44.158;22.788;2023-05-10T07:36:51;101564.44;;;17.13;41.23
12213;BME280;6169;44.158;22.788;2023-05-10T07:41:53;101563.09;;;17.16;41.94
12213;BME280;6169;44.158;22.788;2023-05-10T07:46:55;101564.34;;;16.54;40.62
12213;BME280;6169;44.158;22.788;2023-05-10T07:51:59;101560.16;;;17.23;40.33
12213;BME280;6169;44.158;22.788;2023-05-10T07:57:01;101564.59;;;16.53;39.90
12213;BME280;6169;44.158;22.788;2023-05-10T08:02:03;101564.00;;;17.22;40.49
12213;BME280;6169;44.158;22.788;2023-05-10T08:07:07;101565.19;;;17.31;39.13
12213;BME280;6169;44.158;22.788;2023-05-10T08:12:09;101563.16;;;17.53;39.24
12213;BME280;6169;44.158;22.788;2023-05-10T08:17:11;101563.03;;;16.84;38.90
12213;BME280;6169;44.158;22.788;2023-05-10T08:22:15;101571.38;;;17.48;39.09
12213;BME280;6169;44.158;22.788;2023-05-10T08:27:17;101564.56;;;18.46;37.97
12213;BME280;6169;44.158;22.788;2023-05-10T08:32:19;101562.69;;;18.57;36.83
12213;BME280;6169;44.158;22.788;2023-05-10T08:37:23;101569.13;;;18.25;36.40
12213;BME280;6169;44.158;22.788;2023-05-10T08:42:28;101564.63;;;18.03;37.76
12213;BME280;6169;44.158;22.788;2023-05-10T08:47:32;101559.22;;;18.19;36.79
12213;BME280;6169;44.158;22.788;2023-05-10T08:52:38;101561.06;;;18.08;36.37
12213;BME280;6169;44.158;22.788;2023-05-10T08:57:41;101556.44;;;18.19;35.04
12213;BME280;6169;44.158;22.788;2023-05-10T09:02:44;101558.84;;;18.63;35.04
12213;BME280;6169;44.158;22.788;2023-05-10T09:07:48;101558.50;;;18.44;34.25
12213;BME280;6169;44.158;22.788;2023-05-10T09:12:50;101547.25;;;18.61;35.30
12213;BME280;6169;44.158;22.788;2023-05-10T09:17:54;101552.03;;;18.86;34.27
12213;BME280;6169;44.158;22.788;2023-05-10T09:22:59;101541.59;;;19.03;35.02
12213;BME280;6169;44.158;22.788;2023-05-10T09:28:02;101522.75;;;20.13;34.80
12213;BME280;6169;44.158;22.788;2023-05-10T09:33:07;101531.28;;;20.11;33.67
12213;BME280;6169;44.158;22.788;2023-05-10T09:38:11;101535.34;;;20.39;33.50
12213;BME280;6169;44.158;22.788;2023-05-10T09:43:13;101532.47;;;19.95;32.20
12213;BME280;6169;44.158;22.788;2023-05-10T09:48:15;101527.13;;;20.84;32.19
12213;BME280;6169;44.158;22.788;2023-05-10T09:53:19;101533.59;;;20.59;31.85
12213;BME280;6169;44.158;22.788;2023-05-10T09:58:21;101514.72;;;20.21;32.68
12213;BME280;6169;44.158;22.788;2023-05-10T10:03:23;101506.63;;;20.90;32.01
12213;BME280;6169;44.158;22.788;2023-05-10T10:08:27;101513.25;;;20.44;31.91
12213;BME280;6169;44.158;22.788;2023-05-10T10:13:29;101508.97;;;20.18;31.45
12213;BME280;6169;44.158;22.788;2023-05-10T10:18:32;101494.88;;;20.14;32.47
12213;BME280;6169;44.158;22.788;2023-05-10T10:23:36;101492.75;;;20.50;31.16
12213;BME280;6169;44.158;22.788;2023-05-10T10:28:44;101497.63;;;21.13;31.29
12213;BME280;6169;44.158;22.788;2023-05-10T10:33:59;101482.97;;;21.42;29.21
12213;BME280;6169;44.158;22.788;2023-05-10T10:39:09;101473.78;;;22.24;28.63
12213;BME280;6169;44.158;22.788;2023-05-10T10:44:38;101467.75;;;23.11;27.73
12213;BME280;6169;44.158;22.788;2023-05-10T10:49:42;101468.41;;;22.89;28.12
12213;BME280;6169;44.158;22.788;2023-05-10T10:54:51;101464.44;;;22.77;29.37
12213;BME280;6169;44.158;22.788;2023-05-10T11:00:27;101468.78;;;22.45;28.61
12213;BME280;6169;44.158;22.788;2023-05-10T11:05:40;101465.53;;;21.71;29.22
12213;BME280;6169;44.158;22.788;2023-05-10T11:11:04;101458.53;;;21.49;30.47
12213;BME280;6169;44.158;22.788;2023-05-10T11:16:13;101456.84;;;21.24;30.02
12213;BME280;6169;44.158;22.788;2023-05-10T11:21:16;101454.16;;;21.96;29.77
12213;BME280;6169;44.158;22.788;2023-05-10T11:26:19;101439.72;;;22.61;28.26
12213;BME280;6169;44.158;22.788;2023-05-10T11:31:23;101439.22;;;22.40;27.42
12213;BME280;6169;44.158;22.788;2023-05-10T11:36:28;101428.75;;;23.22;26.99
12213;BME280;6169;44.158;22.788;2023-05-10T11:41:33;101424.66;;;22.67;26.96
12213;BME280;6169;44.158;22.788;2023-05-10T11:46:36;101422.66;;;22.54;27.21
12213;BME280;6169;44.158;22.788;2023-05-10T11:51:38;101414.09;;;22.50;27.40
12213;BME280;6169;44.158;22.788;2023-05-10T11:56:44;101413.97;;;22.42;27.21
12213;BME280;6169;44.158;22.788;2023-05-10T12:01:46;101419.38;;;23.17;27.24
12213;BME280;6169;44.158;22.788;2023-05-10T12:06:48;101403.47;;;22.77;26.23
12213;BME280;6169;44.158;22.788;2023-05-10T12:11:55;101405.38;;;22.76;26.37
12213;BME280;6169;44.158;22.788;2023-05-10T12:16:58;101389.38;;;21.54;27.39
12213;BME280;6169;44.158;22.788;2023-05-10T12:22:00;101396.34;;;22.14;28.20
12213;BME280;6169;44.158;22.788;2023-05-10T12:27:08;101391.25;;;22.59;26.29
12213;BME280;6169;44.158;22.788;2023-05-10T12:32:10;101384.63;;;22.60;26.35
12213;BME280;6169;44.158;22.788;2023-05-10T12:37:12;101382.66;;;22.60;27.30
12213;BME280;6169;44.158;22.788;2023-05-10T12:42:16;101370.75;;;22.60;25.20
12213;BME280;6169;44.158;22.788;2023-05-10T12:47:18;101357.56;;;23.17;25.77
12213;BME280;6169;44.158;22.788;2023-05-10T12:52:20;101367.72;;;22.75;26.13
12213;BME280;6169;44.158;22.788;2023-05-10T12:57:24;101358.25;;;22.95;25.69
12213;BME280;6169;44.158;22.788;2023-05-10T13:02:26;101355.91;;;22.18;26.65
12213;BME280;6169;44.158;22.788;2023-05-10T13:07:29;101338.63;;;22.26;27.84
12213;BME280;6169;44.158;22.788;2023-05-10T13:12:34;101343.53;;;22.29;26.20
12213;BME280;6169;44.158;22.788;2023-05-10T13:17:36;101333.25;;;22.11;26.88
12213;BME280;6169;44.158;22.788;2023-05-10T13:22:39;101325.03;;;22.43;26.36
12213;BME280;6169;44.158;22.788;2023-05-10T13:27:43;101328.09;;;23.07;27.31
12213;BME280;6169;44.158;22.788;2023-05-10T13:32:45;101322.06;;;22.40;26.51
12213;BME280;6169;44.158;22.788;2023-05-10T13:37:47;101320.03;;;22.08;27.96
12213;BME280;6169;44.158;22.788;2023-05-10T13:42:51;101313.84;;;22.16;26.73
12213;BME280;6169;44.158;22.788;2023-05-10T13:47:53;101301.84;;;21.82;26.84
12213;BME280;6169;44.158;22.788;2023-05-10T13:52:55;101303.72;;;22.25;27.26
12213;BME280;6169;44.158;22.788;2023-05-10T13:57:59;101287.19;;;22.53;26.91
12213;BME280;6169;44.158;22.788;2023-05-10T14:03:01;101283.88;;;22.50;26.78
12213;BME280;6169;44.158;22.788;2023-05-10T14:08:05;101276.13;;;23.13;26.56
12213;BME280;6169;44.158;22.788;2023-05-10T14:13:11;101280.81;;;23.54;26.24
12213;BME280;6169;44.158;22.788;2023-05-10T14:18:14;101291.50;;;23.05;26.09
12213;BME280;6169;44.158;22.788;2023-05-10T14:23:16;101267.03;;;23.21;25.77
12213;BME280;6169;44.158;22.788;2023-05-10T14:28:21;101273.44;;;23.35;26.30
12213;BME280;6169;44.158;22.788;2023-05-10T14:33:25;101268.63;;;23.13;25.72
12213;BME280;6169;44.158;22.788;2023-05-10T14:38:27;101270.97;;;23.20;26.67
12213;BME280;6169;44.158;22.788;2023-05-10T14:43:31;101272.81;;;23.11;26.81
12213;BME280;6169;44.158;22.788;2023-05-10T14:48:33;101264.91;;;22.90;26.96
12213;BME280;6169;44.158;22.788;2023-05-10T14:53:35;101262.34;;;22.47;26.59
12213;BME280;6169;44.158;22.788;2023-05-10T14:58:39;101259.06;;;22.45;27.14
12213;BME280;6169;44.158;22.788;2023-05-10T15:03:41;101262.78;;;22.55;27.76
12213;BME280;6169;44.158;22.788;2023-05-10T15:08:43;101258.53;;;22.43;27.29
12213;BME280;6169;44.158;22.788;2023-05-10T15:13:47;101252.47;;;21.71;27.38
12213;BME280;6169;44.158;22.788;2023-05-10T15:18:49;101252.53;;;21.66;27.40
12213;BME280;6169;44.158;22.788;2023-05-10T15:23:51;101236.34;;;22.11;28.14
12213;BME280;6169;44.158;22.788;2023-05-10T15:28:55;101230.63;;;21.88;29.31
12213;BME280;6169;44.158;22.788;2023-05-10T15:33:57;101233.06;;;22.09;29.16
12213;BME280;6169;44.158;22.788;2023-05-10T15:39:00;101224.47;;;20.91;28.86
12213;BME280;6169;44.158;22.788;2023-05-10T15:44:05;101229.38;;;20.41;28.92
12213;BME280;6169;44.158;22.788;2023-05-10T15:49:07;101227.94;;;20.49;28.67
12213;BME280;6169;44.158;22.788;2023-05-10T15:54:09;101225.84;;;20.36;28.67
12213;BME280;6169;44.158;22.788;2023-05-10T15:59:13;101234.44;;;20.34;29.76
12213;BME280;6169;44.158;22.788;2023-05-10T16:04:15;101232.06;;;20.76;29.86
12213;BME280;6169;44.158;22.788;2023-05-10T16:09:17;101231.47;;;20.79;30.05
12213;BME280;6169;44.158;22.788;2023-05-10T16:14:21;101229.13;;;20.38;30.91
12213;BME280;6169;44.158;22.788;2023-05-10T16:19:24;101243.13;;;20.12;31.24
12213;BME280;6169;44.158;22.788;2023-05-10T16:24:27;101240.00;;;19.90;30.96
12213;BME280;6169;44.158;22.788;2023-05-10T16:29:31;101245.59;;;19.74;31.42
12213;BME280;6169;44.158;22.788;2023-05-10T16:34:33;101242.75;;;19.90;31.29
12213;BME280;6169;44.158;22.788;2023-05-10T16:39:35;101246.72;;;20.18;31.33
12213;BME280;6169;44.158;22.788;2023-05-10T16:44:39;101249.88;;;19.96;31.66
12213;BME280;6169;44.158;22.788;2023-05-10T16:49:42;101257.56;;;20.04;31.82
12213;BME280;6169;44.158;22.788;2023-05-10T16:54:44;101250.91;;;20.05;32.47
12213;BME280;6169;44.158;22.788;2023-05-10T16:59:48;101258.25;;;19.80;32.96
12213;BME280;6169;44.158;22.788;2023-05-10T17:04:53;101261.78;;;20.31;32.99
12213;BME280;6169;44.158;22.788;2023-05-10T17:09:55;101255.28;;;20.11;33.88
12213;BME280;6169;44.158;22.788;2023-05-10T17:15:00;101262.88;;;19.95;34.25
12213;BME280;6169;44.158;22.788;2023-05-10T17:20:02;101268.06;;;19.97;34.24
12213;BME280;6169;44.158;22.788;2023-05-10T17:25:06;101264.44;;;19.62;34.89
12213;BME280;6169;44.158;22.788;2023-05-10T17:30:11;101275.06;;;19.84;34.99
12213;BME280;6169;44.158;22.788;2023-05-10T17:35:13;101273.28;;;19.64;34.99
12213;BME280;6169;44.158;22.788;2023-05-10T17:40:16;101279.59;;;19.65;34.89
12213;BME280;6169;44.158;22.788;2023-05-10T17:45:20;101275.00;;;19.39;35.10
12213;BME280;6169;44.158;22.788;2023-05-10T17:50:22;101279.41;;;19.35;34.94
12213;BME280;6169;44.158;22.788;2023-05-10T17:55:24;101283.66;;;19.07;34.95
12213;BME280;6169;44.158;22.788;2023-05-10T18:00:31;101287.19;;;19.28;34.63
12213;BME280;6169;44.158;22.788;2023-05-10T18:05:34;101293.00;;;19.22;35.04
12213;BME280;6169;44.158;22.788;2023-05-10T18:10:37;101297.44;;;19.07;35.21
12213;BME280;6169;44.158;22.788;2023-05-10T18:15:40;101309.31;;;18.87;35.25
12213;BME280;6169;44.158;22.788;2023-05-10T18:20:43;101309.06;;;18.84;35.37
12213;BME280;6169;44.158;22.788;2023-05-10T18:25:46;101323.66;;;18.89;35.14
12213;BME280;6169;44.158;22.788;2023-05-10T18:30:49;101327.53;;;18.63;35.45
12213;BME280;6169;44.158;22.788;2023-05-10T18:35:52;101337.72;;;18.73;35.44
12213;BME280;6169;44.158;22.788;2023-05-10T18:40:54;101328.34;;;18.58;35.64
12213;BME280;6169;44.158;22.788;2023-05-10T18:45:58;101346.78;;;18.68;35.48
12213;BME280;6169;44.158;22.788;2023-05-10T18:51:01;101333.84;;;18.74;35.30
12213;BME280;6169;44.158;22.788;2023-05-10T18:56:03;101335.78;;;18.73;35.66
12213;BME280;6169;44.158;22.788;2023-05-10T19:01:08;101341.00;;;18.69;36.22
12213;BME280;6169;44.158;22.788;2023-05-10T19:06:10;101343.25;;;18.73;36.72
12213;BME280;6169;44.158;22.788;2023-05-10T19:11:13;101344.84;;;18.12;37.24
12213;BME280;6169;44.158;22.788;2023-05-10T19:16:16;101344.59;;;18.49;36.81
12213;BME280;6169;44.158;22.788;2023-05-10T19:21:19;101347.78;;;17.90;37.52
12213;BME280;6169;44.158;22.788;2023-05-10T19:26:21;101349.47;;;18.01;37.69
12213;BME280;6169;44.158;22.788;2023-05-10T19:31:25;101336.56;;;18.12;37.69
12213;BME280;6169;44.158;22.788;2023-05-10T19:36:28;101339.03;;;18.09;37.54
12213;BME280;6169;44.158;22.788;2023-05-10T19:41:30;101341.94;;;17.76;38.40
12213;BME280;6169;44.158;22.788;2023-05-10T19:46:34;101338.50;;;18.12;38.10
12213;BME280;6169;44.158;22.788;2023-05-10T19:51:36;101343.47;;;18.15;37.58
12213;BME280;6169;44.158;22.788;2023-05-10T19:56:39;101347.47;;;17.81;38.56
12213;BME280;6169;44.158;22.788;2023-05-10T20:01:43;101342.47;;;17.68;39.08
12213;BME280;6169;44.158;22.788;2023-05-10T20:06:45;101344.19;;;17.85;38.51
12213;BME280;6169;44.158;22.788;2023-05-10T20:11:48;101339.16;;;17.71;38.37
12213;BME280;6169;44.158;22.788;2023-05-10T20:16:52;101332.59;;;17.72;38.85
12213;BME280;6169;44.158;22.788;2023-05-10T20:21:54;101346.72;;;17.96;38.49
12213;BME280;6169;44.158;22.788;2023-05-10T20:26:58;101348.66;;;18.01;38.91
12213;BME280;6169;44.158;22.788;2023-05-10T20:32:02;101346.88;;;17.64;38.68
12213;BME280;6169;44.158;22.788;2023-05-10T20:37:04;101344.53;;;18.09;38.41
12213;BME280;6169;44.158;22.788;2023-05-10T20:42:06;101347.84;;;18.00;38.37
12213;BME280;6169;44.158;22.788;2023-05-10T20:47:10;101336.50;;;17.29;39.16
12213;BME280;6169;44.158;22.788;2023-05-10T20:52:12;101344.25;;;17.37;39.25
12213;BME280;6169;44.158;22.788;2023-05-10T20:57:15;101341.63;;;17.63;39.03
12213;BME280;6169;44.158;22.788;2023-05-10T21:02:18;101340.50;;;17.64;38.69
12213;BME280;6169;44.158;22.788;2023-05-10T21:07:20;101329.13;;;17.34;39.56
12213;BME280;6169;44.158;22.788;2023-05-10T21:12:23;101330.06;;;17.55;39.51
12213;BME280;6169;44.158;22.788;2023-05-10T21:17:26;101324.44;;;17.35;39.66
12213;BME280;6169;44.158;22.788;2023-05-10T21:22:28;101328.78;;;17.21;39.19
12213;BME280;6169;44.158;22.788;2023-05-10T21:27:31;101316.63;;;17.64;38.76
12213;BME280;6169;44.158;22.788;2023-05-10T21:32:34;101325.97;;;17.15;39.76
12213;BME280;6169;44.158;22.788;2023-05-10T21:37:37;101318.25;;;17.60;39.34
12213;BME280;6169;44.158;22.788;2023-05-10T21:42:39;101320.38;;;17.43;39.34
12213;BME280;6169;44.158;22.788;2023-05-10T21:47:42;101321.19;;;17.43;38.65
12213;BME280;6169;44.158;22.788;2023-05-10T21:52:44;101321.56;;;17.14;39.71
12213;BME280;6169;44.158;22.788;2023-05-10T21:57:49;101324.09;;;17.21;39.48
12213;BME280;6169;44.158;22.788;2023-05-10T22:02:53;101319.00;;;17.45;39.39
12213;BME280;6169;44.158;22.788;2023-05-10T22:07:55;101325.16;;;17.68;39.45
12213;BME280;6169;44.158;22.788;2023-05-10T22:12:58;101323.06;;;17.32;39.70
12213;BME280;6169;44.158;22.788;2023-05-10T22:18:01;101315.47;;;17.02;40.59
12213;BME280;6169;44.158;22.788;2023-05-10T22:23:03;101322.00;;;16.91;40.61
12213;BME280;6169;44.158;22.788;2023-05-10T22:28:06;101321.88;;;17.18;41.39
12213;BME280;6169;44.158;22.788;2023-05-10T22:33:10;101316.84;;;16.35;42.15
12213;BME280;6169;44.158;22.788;2023-05-10T22:38:12;101324.72;;;16.26;42.16
12213;BME280;6169;44.158;22.788;2023-05-10T22:43:15;101322.84;;;16.59;41.77
12213;BME280;6169;44.158;22.788;2023-05-10T22:48:19;101326.50;;;16.38;41.86
12213;BME280;6169;44.158;22.788;2023-05-10T22:53:21;101327.88;;;16.73;41.66
12213;BME280;6169;44.158;22.788;2023-05-10T22:58:24;101327.09;;;16.45;41.67
12213;BME280;6169;44.158;22.788;2023-05-10T23:03:28;101322.84;;;16.59;42.16
12213;BME280;6169;44.158;22.788;2023-05-10T23:08:31;101322.47;;;16.83;41.62
12213;BME280;6169;44.158;22.788;2023-05-10T23:13:33;101324.13;;;16.84;41.81
12213;BME280;6169;44.158;22.788;2023-05-10T23:18:37;101319.53;;;16.94;41.55
12213;BME280;6169;44.158;22.788;2023-05-10T23:23:39;101323.88;;;16.90;41.84
12213;BME280;6169;44.158;22.788;2023-05-10T23:28:41;101330.97;;;16.81;42.02
12213;BME280;6169;44.158;22.788;2023-05-10T23:33:45;101318.88;;;16.45;42.36
12213;BME280;6169;44.158;22.788;2023-05-10T23:38:47;101321.19;;;16.58;42.38
12213;BME280;6169;44.158;22.788;2023-05-10T23:43:49;101328.31;;;16.54;42.31
12213;BME280;6169;44.158;22.788;2023-05-10T23:48:53;101330.13;;;15.67;44.42
12213;BME280;6169;44.158;22.788;2023-05-10T23:53:55;101323.38;;;16.29;43.14
12213;BME280;6169;44.158;22.788;2023-05-10T23:58:57;101325.16;;;16.40;42.93
